Time;durP1;ratioP1;P1;durP2;ratioP2;P2;SDS_P1;SDS_P2;PMS_P1;PMS_P2;Temp;Humidity;BMP_temperature;BMP_pressure;BME280_temperature;BME280_humidity;BME280_pressure;Samples;Min_cycle;Max_cycle;Signal;HPM_P1;HPM_P2
2022/10/22 00:00:09;;;;;;;0.90;0.90;;;15.80;99.90;;;16.27;nan;100205.56;4995314;28;21248;-63
2022/10/22 00:02:36;;;;;;;0.83;0.83;;;15.90;99.90;;;16.25;nan;100201.44;5013701;28;20630;-62
2022/10/22 00:05:04;;;;;;;2.30;1.30;;;15.90;99.90;;;16.27;nan;100202.94;5013526;28;20637;-63
2022/10/22 00:07:31;;;;;;;2.03;0.80;;;15.90;99.90;;;16.33;nan;100194.38;5013936;28;20630;-63
2022/10/22 00:09:58;;;;;;;2.40;1.00;;;15.90;99.90;;;16.33;nan;100196.22;5012780;28;20661;-63
2022/10/22 00:12:26;;;;;;;1.00;0.93;;;15.90;99.90;;;16.49;nan;100196.28;5011582;28;21014;-63
2022/10/22 00:14:53;;;;;;;1.67;0.73;;;16.00;99.90;;;16.51;nan;100194.34;5012235;28;20633;-63
2022/10/22 00:17:20;;;;;;;1.03;1.03;;;16.10;99.90;;;16.74;nan;100203.31;5011720;28;20641;-63
2022/10/22 00:19:47;;;;;;;2.40;1.10;;;16.20;99.90;;;16.64;nan;100210.53;5012144;28;21221;-63
2022/10/22 00:22:14;;;;;;;1.00;0.90;;;16.20;99.90;;;16.63;nan;100224.66;4998128;28;20638;-64
2022/10/22 00:24:41;;;;;;;2.20;0.60;;;16.10;99.90;;;16.72;nan;100223.72;5006459;28;21002;-63
2022/10/22 00:27:10;;;;;;;0.53;0.53;;;16.20;99.90;;;16.57;nan;100219.25;4994176;28;21208;-63
2022/10/22 00:29:37;;;;;;;0.70;0.70;;;16.20;99.90;;;16.50;nan;100219.03;4992596;28;20634;-63
2022/10/22 00:32:05;;;;;;;1.73;0.60;;;16.10;99.90;;;16.47;nan;100221.13;4995927;28;21129;-63
2022/10/22 00:34:32;;;;;;;0.63;0.63;;;16.10;99.90;;;16.39;nan;100221.91;5010870;28;20667;-63
2022/10/22 00:36:59;;;;;;;0.60;0.60;;;16.10;99.90;;;16.46;nan;100230.81;5002510;28;21084;-63
2022/10/22 00:39:27;;;;;;;0.40;0.40;;;16.10;99.90;;;16.44;nan;100230.16;4999776;28;20666;-62
2022/10/22 00:41:56;;;;;;;0.50;0.50;;;16.10;99.90;;;16.54;nan;100236.19;4977778;28;20619;-63
2022/10/22 00:45:03;;;;;;;0.50;0.50;;;16.10;99.90;;;16.45;nan;100223.91;5011425;28;20614;-63
2022/10/22 00:47:56;;;;;;;0.53;0.53;;;16.10;99.90;;;16.40;nan;100225.38;5008006;28;20628;-63
2022/10/22 00:50:30;;;;;;;0.73;0.60;;;16.10;99.90;;;16.42;nan;100236.59;5009815;28;20656;-61
2022/10/22 00:52:58;;;;;;;0.50;0.50;;;16.00;99.90;;;16.41;nan;100251.53;4993934;28;20664;-63
2022/10/22 00:55:27;;;;;;;0.70;0.50;;;16.00;99.90;;;16.36;nan;100259.06;4975224;28;20610;-63
2022/10/22 00:57:56;;;;;;;0.50;0.50;;;16.00;99.90;;;16.36;nan;100247.72;5000944;28;20614;-63
2022/10/22 01:00:23;;;;;;;0.60;0.60;;;16.00;99.90;;;16.29;nan;100242.28;5011369;28;20676;-63
2022/10/22 01:02:52;;;;;;;0.87;0.50;;;15.90;99.90;;;16.28;nan;100246.72;4992214;28;21058;-63
2022/10/22 01:05:20;;;;;;;0.43;0.43;;;15.90;99.90;;;16.41;nan;100251.53;4995030;28;20679;-63
2022/10/22 01:07:50;;;;;;;0.40;0.40;;;16.00;99.90;;;16.48;nan;100267.53;5003087;28;20635;-64
2022/10/22 01:10:53;;;;;;;2.40;0.70;;;16.00;99.90;;;16.45;nan;100263.41;5009694;28;20665;-63
2022/10/22 01:13:55;;;;;;;0.60;0.60;;;16.00;99.90;;;16.37;nan;100265.19;4990611;28;20653;-62
2022/10/22 01:16:55;;;;;;;1.17;0.70;;;16.00;99.90;;;16.23;nan;100262.13;4953044;28;20636;-63
2022/10/22 01:20:09;;;;;;;0.50;0.40;;;15.90;99.90;;;16.17;nan;100259.28;4989422;28;20633;-63
2022/10/22 01:23:26;;;;;;;1.80;0.50;;;15.90;99.90;;;16.21;nan;100271.16;5007769;28;20664;-63
2022/10/22 01:26:35;;;;;;;0.43;0.43;;;15.80;99.90;;;16.08;nan;100274.19;4991257;28;20614;-62
2022/10/22 01:29:12;;;;;;;2.30;0.60;;;15.80;99.90;;;15.97;nan;100266.56;5010448;28;20617;-63
2022/10/22 01:31:45;;;;;;;0.50;0.50;;;15.70;99.90;;;16.11;nan;100262.53;4992243;28;20687;-63
2022/10/22 01:34:16;;;;;;;0.40;0.40;;;15.70;99.90;;;16.01;nan;100275.81;4991273;28;20611;-61
2022/10/22 01:36:44;;;;;;;0.60;0.47;;;15.70;99.90;;;16.00;nan;100273.31;4980818;28;20619;-62
2022/10/22 01:39:14;;;;;;;0.60;0.60;;;15.70;99.90;;;15.87;nan;100278.97;4958879;28;21198;-63
2022/10/22 01:41:46;;;;;;;0.40;0.40;;;15.60;99.90;;;15.79;nan;100272.81;4975686;28;20669;-63
2022/10/22 01:44:29;;;;;;;0.50;0.50;;;15.50;99.90;;;15.91;nan;100276.84;4995013;28;20646;-63
2022/10/22 01:47:20;;;;;;;4.30;0.60;;;15.50;99.90;;;15.85;nan;100274.84;5011247;28;20967;-63
2022/10/22 01:50:15;;;;;;;0.60;0.60;;;15.50;99.90;;;15.92;nan;100270.63;4992335;28;20654;-63
2022/10/22 01:52:57;;;;;;;2.20;0.70;;;15.50;99.90;;;15.86;nan;100268.63;4990936;28;20638;-63
2022/10/22 01:56:00;;;;;;;0.40;0.40;;;15.50;99.90;;;15.72;nan;100256.81;4992747;28;21038;-61
2022/10/22 01:58:49;;;;;;;0.50;0.37;;;15.50;99.90;;;15.75;nan;100260.97;5008181;28;21167;-62
2022/10/22 02:01:58;;;;;;;0.50;0.50;;;15.40;99.90;;;15.86;nan;100252.84;4994007;28;20669;-63
2022/10/22 02:04:43;;;;;;;0.40;0.40;;;15.40;99.90;;;15.83;nan;100250.50;5009589;28;20637;-63
2022/10/22 02:07:14;;;;;;;0.50;0.50;;;15.50;99.90;;;15.83;nan;100266.28;5009888;28;20606;-63
2022/10/22 02:09:43;;;;;;;5.50;0.63;;;15.50;99.90;;;15.69;nan;100265.03;4990680;28;20634;-63
2022/10/22 02:12:13;;;;;;;0.50;0.43;;;15.40;99.90;;;15.84;nan;100270.56;4992637;28;20606;-62
2022/10/22 02:14:43;;;;;;;0.60;0.60;;;15.40;99.90;;;15.71;nan;100270.13;4991158;28;20634;-63
2022/10/22 02:17:18;;;;;;;0.43;0.43;;;15.40;99.90;;;15.75;nan;100260.97;5001592;28;20618;-63
2022/10/22 02:19:57;;;;;;;0.63;0.63;;;15.40;99.90;;;15.60;nan;100255.41;4990806;28;20657;-63
2022/10/22 02:22:26;;;;;;;0.60;0.60;;;15.30;99.90;;;15.74;nan;100244.34;4994297;28;21162;-63
2022/10/22 02:24:53;;;;;;;0.60;0.60;;;15.30;99.90;;;15.69;nan;100251.06;4991766;28;21185;-63
2022/10/22 02:27:32;;;;;;;1.90;0.53;;;15.30;99.90;;;15.70;nan;100243.00;4994365;28;20621;-63
2022/10/22 02:30:13;;;;;;;0.40;0.40;;;15.30;99.90;;;15.62;nan;100234.22;4990173;28;20666;-63
2022/10/22 02:33:02;;;;;;;0.50;0.50;;;15.30;99.90;;;15.69;nan;100227.38;4993047;28;20590;-63
2022/10/22 02:35:30;;;;;;;0.57;0.57;;;15.30;99.90;;;15.72;nan;100219.16;4990657;28;20606;-63
2022/10/22 02:37:58;;;;;;;0.47;0.47;;;15.30;99.90;;;15.82;nan;100219.91;4981126;28;20638;-63
2022/10/22 02:40:27;;;;;;;0.50;0.50;;;15.30;99.90;;;15.81;nan;100226.16;4992307;28;21260;-63
2022/10/22 02:42:53;;;;;;;0.50;0.50;;;15.40;99.90;;;15.89;nan;100218.31;4992709;28;20636;-63
2022/10/22 02:45:21;;;;;;;0.50;0.50;;;15.40;99.90;;;15.91;nan;100224.25;5014170;28;20622;-63
2022/10/22 02:47:47;;;;;;;1.33;0.50;;;15.40;99.90;;;15.96;nan;100209.66;4997012;28;20622;-63
2022/10/22 02:50:15;;;;;;;0.70;0.70;;;15.50;99.90;;;16.01;nan;100215.28;5013022;28;21094;-63
2022/10/22 02:52:42;;;;;;;0.50;0.50;;;15.50;99.90;;;16.04;nan;100199.19;4996598;28;20699;-64
2022/10/22 02:55:09;;;;;;;0.50;0.50;;;15.50;99.90;;;16.05;nan;100206.09;4997203;28;21133;-63
2022/10/22 02:57:36;;;;;;;0.67;0.67;;;15.50;99.90;;;16.02;nan;100209.03;5012444;28;20638;-62
2022/10/22 03:00:06;;;;;;;0.70;0.70;;;15.50;99.90;;;16.03;nan;100212.50;5012559;28;20738;-63
2022/10/22 03:02:33;;;;;;;4.00;0.80;;;15.50;99.90;;;15.97;nan;100210.50;5013315;28;20593;-63
2022/10/22 03:05:00;;;;;;;0.53;0.53;;;15.50;99.90;;;16.03;nan;100208.06;5012645;28;20640;-63
2022/10/22 03:07:27;;;;;;;0.57;0.53;;;15.50;99.90;;;16.10;nan;100209.06;5008288;28;20626;-63
2022/10/22 03:09:54;;;;;;;0.60;0.60;;;15.60;99.90;;;15.98;nan;100222.66;5010581;28;20665;-63
2022/10/22 03:12:21;;;;;;;0.57;0.57;;;15.50;99.90;;;15.95;nan;100225.59;5013676;28;20600;-63
2022/10/22 03:14:48;;;;;;;0.47;0.47;;;15.50;99.90;;;15.96;nan;100217.56;5012752;28;20667;-63
2022/10/22 03:17:15;;;;;;;0.50;0.50;;;15.50;99.90;;;16.04;nan;100214.97;4997133;28;20605;-63
2022/10/22 03:19:42;;;;;;;0.57;0.57;;;15.50;99.90;;;16.13;nan;100213.22;5013284;28;20660;-63
2022/10/22 03:22:20;;;;;;;0.60;0.60;;;15.60;99.90;;;16.05;nan;100218.44;5013194;28;20679;-63
2022/10/22 03:24:52;;;;;;;0.53;0.53;;;15.70;99.90;;;16.12;nan;100208.94;5014088;28;20964;-63
2022/10/22 03:27:21;;;;;;;0.53;0.53;;;15.60;99.90;;;16.09;nan;100227.66;4994563;28;20628;-63
2022/10/22 03:29:50;;;;;;;0.90;0.63;;;15.60;99.90;;;16.06;nan;100236.69;4996563;28;21212;-63
2022/10/22 03:32:17;;;;;;;0.63;0.63;;;15.60;99.90;;;16.01;nan;100269.72;4995914;28;21001;-63
2022/10/22 03:34:45;;;;;;;0.73;0.73;;;15.60;99.90;;;16.07;nan;100284.88;5011533;28;20648;-63
2022/10/22 03:37:12;;;;;;;3.07;0.60;;;15.50;99.90;;;16.12;nan;100301.88;5009626;28;20634;-64
2022/10/22 03:39:39;;;;;;;1.13;0.60;;;15.60;99.90;;;16.14;nan;100309.63;4990598;28;20609;-64
2022/10/22 03:42:07;;;;;;;2.40;0.40;;;15.60;99.90;;;16.13;nan;100300.06;5011669;28;20706;-64
2022/10/22 03:44:36;;;;;;;1.57;0.90;;;15.70;99.90;;;15.92;nan;100312.72;4995667;28;20616;-63
2022/10/22 03:47:04;;;;;;;0.60;0.60;;;15.60;99.90;;;15.73;nan;100297.94;5011517;28;20630;-64
2022/10/22 03:49:31;;;;;;;0.50;0.50;;;15.50;99.90;;;15.82;nan;100288.31;4990857;28;20628;-63
2022/10/22 03:52:08;;;;;;;0.60;0.60;;;15.40;99.90;;;15.91;nan;100295.28;5022502;23;20686;-65
2022/10/22 03:54:36;;;;;;;0.50;0.50;;;15.40;99.90;;;15.78;nan;100290.41;4978025;28;20617;-65
2022/10/22 03:57:05;;;;;;;1.03;0.60;;;15.40;99.90;;;15.87;nan;100291.31;5000156;28;20637;-64
2022/10/22 03:59:37;;;;;;;0.53;0.53;;;15.40;99.90;;;15.70;nan;100300.88;5014275;28;20613;-65
2022/10/22 04:02:05;;;;;;;0.60;0.60;;;15.30;99.90;;;15.62;nan;100306.06;5012960;28;21244;-65
2022/10/22 04:04:32;;;;;;;0.60;0.60;;;15.30;99.90;;;15.49;nan;100316.94;5012866;28;20638;-65
2022/10/22 04:06:59;;;;;;;2.77;0.50;;;15.20;99.90;;;15.57;nan;100324.06;5007471;28;20645;-65
2022/10/22 04:09:26;;;;;;;1.00;0.67;;;15.20;99.90;;;15.31;nan;100331.03;5011609;28;21215;-65
2022/10/22 04:11:53;;;;;;;0.90;0.90;;;15.00;99.90;;;15.37;nan;100328.63;5012168;28;21227;-65
2022/10/22 04:14:19;;;;;;;0.70;0.70;;;15.00;99.90;;;15.25;nan;100335.03;5007147;28;20645;-66
2022/10/22 04:16:46;;;;;;;0.50;0.50;;;15.00;99.90;;;15.18;nan;100343.69;5012764;28;21016;-65
2022/10/22 04:19:13;;;;;;;0.70;0.70;;;14.90;99.90;;;15.25;nan;100350.81;5012303;28;20624;-65
2022/10/22 04:21:40;;;;;;;0.50;0.50;;;14.90;99.90;;;15.27;nan;100351.50;4993860;28;21218;-66
2022/10/22 04:24:07;;;;;;;0.50;0.50;;;14.90;99.90;;;15.31;nan;100358.09;4993576;28;20611;-67
2022/10/22 04:26:34;;;;;;;0.67;0.63;;;14.90;99.90;;;15.24;nan;100351.81;4994170;28;20610;-66
2022/10/22 04:29:01;;;;;;;0.43;0.40;;;14.90;99.90;;;15.08;nan;100354.22;5000207;28;20630;-66
2022/10/22 04:31:28;;;;;;;0.50;0.50;;;14.80;99.90;;;14.88;nan;100350.03;5013994;28;20641;-65
2022/10/22 04:33:58;;;;;;;0.60;0.60;;;14.80;99.90;;;14.71;nan;100350.78;5012606;28;20628;-65
2022/10/22 04:36:27;;;;;;;0.53;0.53;;;14.60;99.90;;;14.81;nan;100348.13;5013635;28;20633;-67
2022/10/22 04:38:57;;;;;;;0.47;0.47;;;14.60;99.90;;;14.76;nan;100356.41;5012260;28;20637;-66
2022/10/22 04:41:31;;;;;;;0.40;0.40;;;14.50;99.90;;;14.76;nan;100362.50;5011527;28;20670;-65
2022/10/22 04:43:58;;;;;;;0.50;0.50;;;14.50;99.90;;;14.76;nan;100365.13;5012038;28;20610;-67
2022/10/22 04:46:28;;;;;;;0.50;0.50;;;14.50;99.90;;;14.73;nan;100364.59;4981190;28;20633;-64
2022/10/22 04:48:55;;;;;;;0.40;0.40;;;14.40;99.90;;;14.62;nan;100362.97;4992714;28;20611;-65
2022/10/22 04:51:24;;;;;;;0.40;0.40;;;14.40;99.90;;;14.60;nan;100364.09;4983619;28;20658;-66
2022/10/22 04:53:52;;;;;;;0.67;0.50;;;14.40;99.90;;;14.63;nan;100371.66;5010641;28;20634;-65
2022/10/22 04:56:26;;;;;;;0.50;0.50;;;14.30;99.90;;;14.78;nan;100378.13;5011583;28;20630;-66
2022/10/22 04:59:06;;;;;;;0.40;0.40;;;14.40;99.90;;;14.81;nan;100385.72;5012375;28;20646;-65
2022/10/22 05:01:36;;;;;;;0.50;0.50;;;14.40;99.90;;;14.81;nan;100380.47;4994834;28;21026;-65
2022/10/22 05:04:11;;;;;;;0.40;0.40;;;14.40;99.90;;;14.71;nan;100374.44;5013156;28;20608;-65
2022/10/22 05:06:38;;;;;;;0.50;0.50;;;14.40;99.90;;;14.62;nan;100373.47;5011077;28;20622;-65
2022/10/22 05:09:17;;;;;;;1.07;0.77;;;14.40;99.90;;;14.65;nan;100377.63;4993133;28;20618;-65
2022/10/22 05:11:47;;;;;;;1.03;0.43;;;14.40;99.90;;;14.62;nan;100383.16;4992072;28;20650;-66
2022/10/22 05:14:25;;;;;;;0.50;0.50;;;14.30;99.90;;;14.60;nan;100385.94;4977773;28;20629;-65
2022/10/22 05:16:52;;;;;;;0.90;0.60;;;14.30;99.90;;;14.62;nan;100385.78;5012082;28;20635;-65
2022/10/22 05:19:23;;;;;;;0.50;0.50;;;14.30;99.90;;;14.60;nan;100395.59;5010389;28;20626;-66
2022/10/22 05:21:52;;;;;;;0.50;0.50;;;14.30;99.90;;;14.51;nan;100389.38;5012172;28;20672;-65
2022/10/22 05:24:19;;;;;;;0.50;0.50;;;14.20;99.90;;;14.46;nan;100404.72;5008304;28;20642;-65
2022/10/22 05:26:52;;;;;;;0.50;0.50;;;14.20;99.90;;;14.54;nan;100404.03;5011591;28;20626;-66
2022/10/22 05:29:19;;;;;;;0.50;0.50;;;14.20;99.90;;;14.74;nan;100411.72;5012264;28;20626;-65
2022/10/22 05:31:46;;;;;;;0.63;0.63;;;14.30;99.90;;;14.58;nan;100408.88;5011692;28;21007;-64
2022/10/22 05:34:14;;;;;;;0.50;0.50;;;14.30;99.90;;;14.57;nan;100412.44;5012049;28;20620;-64
2022/10/22 05:36:42;;;;;;;0.53;0.53;;;14.30;99.90;;;14.49;nan;100409.72;4992600;28;20638;-64
2022/10/22 05:39:09;;;;;;;0.60;0.60;;;14.20;99.90;;;14.49;nan;100414.97;5002960;28;20648;-65
2022/10/22 05:41:36;;;;;;;4.63;0.60;;;14.20;99.90;;;14.58;nan;100415.91;4993516;28;21043;-64
2022/10/22 05:44:04;;;;;;;0.40;0.40;;;14.20;99.90;;;14.71;nan;100417.25;5010132;28;20635;-65
2022/10/22 05:46:35;;;;;;;0.50;0.50;;;14.30;99.90;;;14.74;nan;100424.03;4996855;28;21017;-64
2022/10/22 05:49:04;;;;;;;0.80;0.50;;;14.30;99.90;;;14.72;nan;100439.09;4993310;28;20624;-65
2022/10/22 05:51:35;;;;;;;2.10;0.50;;;14.30;99.90;;;14.69;nan;100434.13;5002224;28;20665;-64
2022/10/22 05:54:05;;;;;;;0.50;0.50;;;14.30;99.90;;;14.72;nan;100426.78;5009541;28;20707;-64
2022/10/22 05:56:33;;;;;;;0.50;0.50;;;14.30;99.90;;;14.91;nan;100441.69;5010527;28;20617;-64
2022/10/22 05:59:00;;;;;;;1.00;1.00;;;14.40;99.90;;;14.93;nan;100444.19;5011718;28;20736;-64
2022/10/22 06:01:36;;;;;;;0.70;0.70;;;14.40;99.90;;;14.85;nan;100447.50;5010941;28;20749;-65
2022/10/22 06:04:07;;;;;;;0.70;0.70;;;14.40;99.90;;;14.84;nan;100450.28;5011098;28;20626;-66
2022/10/22 06:06:44;;;;;;;0.63;0.63;;;14.40;99.90;;;14.98;nan;100458.53;5009797;28;20634;-66
2022/10/22 06:09:28;;;;;;;0.60;0.60;;;14.50;99.90;;;14.78;nan;100459.53;4993210;28;20643;-65
2022/10/22 06:11:56;;;;;;;2.43;0.80;;;14.50;99.90;;;14.88;nan;100457.75;4992932;28;20646;-66
2022/10/22 06:14:24;;;;;;;1.23;1.10;;;14.50;99.90;;;14.98;nan;100469.03;5010646;28;21205;-64
2022/10/22 06:16:52;;;;;;;0.83;0.80;;;14.50;99.90;;;14.81;nan;100464.50;5010589;28;20610;-64
2022/10/22 06:19:21;;;;;;;0.83;0.83;;;14.50;99.90;;;14.95;nan;100471.13;5010289;28;20648;-67
2022/10/22 06:21:48;;;;;;;1.07;0.80;;;14.50;99.90;;;15.06;nan;100474.41;5010071;28;20677;-65
2022/10/22 06:24:15;;;;;;;0.80;0.80;;;14.50;99.90;;;15.09;nan;100471.50;5009952;28;20727;-67
2022/10/22 06:26:42;;;;;;;0.57;0.57;;;14.60;99.90;;;15.11;nan;100479.25;5007300;28;20630;-64
2022/10/22 06:29:10;;;;;;;0.63;0.63;;;14.60;99.90;;;15.17;nan;100487.38;5010607;28;20998;-66
2022/10/22 06:31:36;;;;;;;0.70;0.70;;;14.70;99.90;;;15.31;nan;100500.06;5010075;28;20672;-64
2022/10/22 06:34:07;;;;;;;2.87;0.73;;;14.70;99.90;;;15.38;nan;100497.69;5010400;28;20628;-63
2022/10/22 06:36:35;;;;;;;1.47;0.80;;;14.80;99.90;;;15.41;nan;100500.88;5004715;28;20668;-64
2022/10/22 06:39:03;;;;;;;1.43;0.97;;;14.80;99.90;;;15.46;nan;100508.38;4998840;28;20642;-64
2022/10/22 06:41:30;;;;;;;0.90;0.90;;;14.90;99.90;;;15.50;nan;100520.25;4990636;28;20677;-64
2022/10/22 06:43:57;;;;;;;1.57;0.80;;;14.90;99.90;;;15.60;nan;100520.19;4989996;28;20627;-64
2022/10/22 06:46:24;;;;;;;0.70;0.70;;;14.90;99.90;;;15.69;nan;100516.69;4991893;28;20691;-64
2022/10/22 06:49:01;;;;;;;0.70;0.70;;;15.00;99.90;;;15.74;nan;100520.53;4997513;28;20622;-64
2022/10/22 06:51:28;;;;;;;1.40;0.97;;;15.10;99.90;;;15.87;nan;100514.94;5008606;28;20668;-65
2022/10/22 06:53:57;;;;;;;1.17;1.07;;;15.20;99.90;;;16.24;nan;100523.59;5002628;28;20982;-64
2022/10/22 06:56:27;;;;;;;4.43;1.20;;;15.40;99.90;;;17.51;nan;100531.88;5003934;28;20635;-64
2022/10/22 06:58:56;;;;;;;3.90;3.30;;;16.00;99.90;;;18.91;nan;100530.09;5007414;28;20636;-64
2022/10/22 07:01:30;;;;;;;0.80;0.80;;;16.90;99.90;;;19.76;nan;100537.38;4992992;28;20680;-65
2022/10/22 07:03:58;;;;;;;1.13;0.70;;;17.70;99.90;;;20.16;nan;100535.56;5010493;28;21004;-65
2022/10/22 07:06:26;;;;;;;1.93;0.87;;;18.30;99.90;;;20.81;nan;100544.75;5010729;28;20631;-67
2022/10/22 07:08:55;;;;;;;2.07;0.77;;;18.90;99.90;;;22.12;nan;100552.88;5000967;28;20642;-66
2022/10/22 07:11:26;;;;;;;0.63;0.60;;;19.60;99.90;;;22.79;nan;100549.91;5007797;28;20665;-67
2022/10/22 07:13:58;;;;;;;0.70;0.70;;;20.40;99.90;;;22.23;nan;100555.03;4991297;28;20630;-65
2022/10/22 07:16:25;;;;;;;1.20;0.70;;;20.80;99.90;;;23.20;nan;100555.34;5010861;28;21218;-65
2022/10/22 07:18:55;;;;;;;0.70;0.70;;;21.20;99.90;;;24.11;nan;100563.09;5010693;28;20634;-65
2022/10/22 07:21:22;;;;;;;0.80;0.80;;;21.80;99.90;;;25.14;nan;100571.53;5009007;28;20871;-64
2022/10/22 07:23:49;;;;;;;1.10;0.67;;;22.60;99.90;;;25.58;nan;100579.72;5008468;28;21174;-64
2022/10/22 07:26:16;;;;;;;2.07;0.60;;;23.10;99.90;;;25.00;nan;100572.56;5011189;28;20663;-64
2022/10/22 07:28:43;;;;;;;1.80;0.70;;;23.20;99.90;;;24.04;nan;100573.75;5013811;28;20617;-64
2022/10/22 07:31:13;;;;;;;2.37;0.80;;;22.90;99.90;;;23.48;nan;100581.00;5013935;28;20650;-65
2022/10/22 07:33:40;;;;;;;1.13;0.80;;;22.40;99.90;;;23.51;nan;100580.59;4997064;28;20625;-64
2022/10/22 07:36:11;;;;;;;0.90;0.80;;;22.10;99.90;;;23.62;nan;100585.38;5014145;28;20633;-63
2022/10/22 07:38:37;;;;;;;1.77;0.70;;;22.00;99.90;;;23.62;nan;100579.22;4996066;28;20629;-64
2022/10/22 07:41:04;;;;;;;0.77;0.73;;;22.00;99.90;;;23.35;nan;100585.41;5012574;28;20678;-64
2022/10/22 07:43:31;;;;;;;0.70;0.70;;;22.00;99.90;;;23.01;nan;100580.81;5013294;28;21197;-64
2022/10/22 07:45:59;;;;;;;0.83;0.80;;;22.00;99.90;;;23.82;nan;100586.34;5013170;28;20725;-64
2022/10/22 07:48:26;;;;;;;1.20;0.80;;;22.10;99.90;;;25.38;nan;100592.28;5013286;28;20637;-65
2022/10/22 07:50:53;;;;;;;1.90;1.00;;;22.70;99.90;;;-141.50;nan;62695.63;5012983;28;20665;-64
2022/10/22 07:53:20;;;;;;;0.70;0.70;;;24.10;99.90;;;;;;5012138;28;20620;-63
2022/10/22 07:55:48;;;;;;;1.00;1.00;;;25.60;99.90;;;;;;5012200;28;20638;-64
2022/10/22 07:58:15;;;;;;;1.23;1.00;;;26.70;99.90;;;;;;5012727;28;20691;-63
2022/10/22 08:00:42;;;;;;;0.80;0.80;;;27.80;97.40;;;32.22;nan;100592.50;5011986;28;20684;-65
2022/10/22 08:03:15;;;;;;;1.83;0.80;;;28.40;95.30;;;34.01;nan;100593.47;5013614;28;21130;-64
2022/10/22 08:05:43;;;;;;;0.90;0.90;;;29.40;92.90;;;35.84;nan;100596.84;5012131;28;21216;-65
2022/10/22 08:08:12;;;;;;;2.20;0.80;;;30.60;90.00;;;36.60;nan;100605.44;4995333;28;20980;-64
2022/10/22 08:10:39;;;;;;;8.43;0.90;;;31.60;83.80;;;38.08;nan;100608.13;5012819;28;20649;-64
2022/10/22 08:13:06;;;;;;;0.87;0.80;;;32.60;78.20;;;39.10;nan;100610.97;5012025;28;20672;-64
2022/10/22 08:15:34;;;;;;;12.10;1.00;;;33.60;73.20;;;39.88;nan;100610.91;4992774;28;20627;-65
2022/10/22 08:18:01;;;;;;;1.33;0.93;;;34.30;69.10;;;39.20;nan;100618.22;4993431;28;20614;-64
2022/10/22 08:20:28;;;;;;;3.33;0.90;;;34.60;66.20;;;40.18;nan;100614.97;5007395;28;21256;-64
2022/10/22 08:22:54;;;;;;;0.70;0.70;;;35.00;64.30;;;39.34;nan;100616.31;5014369;28;20661;-64
2022/10/22 08:25:21;;;;;;;0.90;0.60;;;35.30;61.90;;;39.66;nan;100619.00;5012636;28;20672;-65
2022/10/22 08:27:48;;;;;;;0.70;0.70;;;35.40;61.00;;;40.06;nan;100607.28;5012621;28;20665;-64
2022/10/22 08:30:15;;;;;;;0.60;0.60;;;35.70;60.10;;;40.95;nan;100618.38;5012974;28;20618;-64
2022/10/22 08:32:42;;;;;;;1.00;1.00;;;35.90;59.50;;;41.86;nan;100622.25;5013433;28;20656;-64
2022/10/22 08:35:09;;;;;;;0.60;0.60;;;36.40;58.60;;;42.44;nan;100627.38;4995978;28;20617;-65
2022/10/22 08:37:39;;;;;;;0.93;0.70;;;36.70;57.80;;;43.06;nan;100633.38;5011562;28;21108;-64
2022/10/22 08:40:09;;;;;;;0.73;0.73;;;37.00;56.80;;;42.59;nan;100621.44;5005047;28;20635;-65
2022/10/22 08:42:47;;;;;;;0.60;0.60;;;37.10;55.90;;;43.51;nan;100626.28;4994992;28;20737;-64
2022/10/22 08:45:41;;;;;;;0.60;0.60;;;37.50;55.40;;;43.85;nan;100626.16;5013124;28;20621;-66
2022/10/22 08:48:30;;;;;;;0.70;0.70;;;37.70;54.40;;;42.10;nan;100625.41;5012006;28;20985;-65
2022/10/22 08:50:57;;;;;;;0.80;0.70;;;37.50;53.60;;;43.14;nan;100632.53;4984071;28;20670;-65
2022/10/22 08:54:08;;;;;;;0.80;0.80;;;37.70;53.80;;;43.46;nan;100634.72;4992719;28;20669;-65
2022/10/22 08:56:36;;;;;;;0.97;0.70;;;38.00;53.10;;;42.68;nan;100629.69;4984280;28;20632;-65
2022/10/22 08:59:36;;;;;;;0.60;0.60;;;37.80;52.80;;;43.06;nan;100634.16;4995001;28;20636;-65
2022/10/22 09:02:37;;;;;;;1.37;0.70;;;38.00;52.70;;;43.71;nan;100633.03;4995559;28;20666;-65
2022/10/22 09:05:36;;;;;;;2.83;0.70;;;38.00;52.90;;;45.05;nan;100644.53;5002113;28;20644;-65
2022/10/22 09:08:06;;;;;;;2.13;0.80;;;38.60;52.20;;;44.65;nan;100640.69;4989929;28;21236;-65
2022/10/22 09:10:37;;;;;;;0.77;0.77;;;38.80;51.50;;;44.35;nan;100645.44;5010597;28;20660;-64
2022/10/22 09:13:04;;;;;;;0.80;0.80;;;39.00;51.00;;;42.81;nan;100643.22;5009955;28;20630;-64
2022/10/22 09:15:31;;;;;;;0.60;0.60;;;38.30;50.90;;;43.17;nan;100640.13;5012339;28;21212;-64
2022/10/22 09:18:12;;;;;;;0.63;0.63;;;38.10;51.50;;;43.65;nan;100639.84;4993833;28;20629;-65
2022/10/22 09:20:57;;;;;;;3.80;0.80;;;38.60;51.30;;;44.83;nan;100639.44;4993685;28;21262;-65
2022/10/22 09:23:37;;;;;;;0.77;0.77;;;39.00;51.00;;;43.76;nan;100641.91;4993729;28;20657;-64
2022/10/22 09:26:14;;;;;;;1.60;0.90;;;38.60;50.70;;;44.27;nan;100642.75;5012105;28;20648;-65
2022/10/22 09:28:42;;;;;;;0.70;0.70;;;39.10;50.30;;;45.24;nan;100650.34;5011640;28;20613;-65
2022/10/22 09:31:14;;;;;;;0.70;0.70;;;39.30;50.50;;;46.21;nan;100650.41;5011269;28;20653;-64
2022/10/22 09:33:43;;;;;;;0.90;0.90;;;39.60;50.10;;;46.02;nan;100656.56;5011271;28;20634;-65
2022/10/22 09:36:21;;;;;;;2.47;0.90;;;39.80;49.90;;;46.49;nan;100654.06;5011096;28;20633;-64
2022/10/22 09:38:51;;;;;;;0.70;0.70;;;40.10;49.70;;;47.06;nan;100662.03;4996897;28;20640;-64
2022/10/22 09:41:23;;;;;;;1.77;1.67;;;40.40;49.30;;;47.78;nan;100671.00;4990059;28;20660;-65
2022/10/22 09:43:51;;;;;;;3.70;0.90;;;40.80;48.90;;;47.89;nan;100672.06;4993084;28;20625;-64
2022/10/22 09:46:26;;;;;;;1.57;0.80;;;41.10;49.10;;;45.51;nan;100656.38;5006912;28;20634;-64
2022/10/22 09:49:11;;;;;;;0.83;0.83;;;40.50;48.50;;;46.27;nan;100662.81;5009781;28;20630;-64
2022/10/22 09:51:53;;;;;;;0.90;0.90;;;40.50;48.60;;;46.35;nan;100650.88;5026509;22;21337;-63
2022/10/22 09:54:41;;;;;;;0.90;0.90;;;40.40;48.40;;;45.27;nan;100648.88;5011677;28;20605;-63
2022/10/22 09:57:20;;;;;;;0.80;0.70;;;40.40;48.00;;;47.01;nan;100656.72;5005584;28;20626;-63
2022/10/22 09:59:50;;;;;;;0.80;0.80;;;40.80;48.10;;;48.14;nan;100663.22;5009922;28;20620;-63
2022/10/22 10:02:21;;;;;;;0.77;0.77;;;41.40;47.30;;;48.86;nan;100664.38;5002895;28;20682;-63
2022/10/22 10:05:04;;;;;;;0.80;0.80;;;41.90;46.90;;;48.21;nan;100663.38;5011203;28;20609;-63
2022/10/22 10:07:33;;;;;;;0.80;0.80;;;42.00;46.30;;;47.91;nan;100667.00;5007361;28;20689;-63
2022/10/22 10:10:01;;;;;;;0.87;0.87;;;42.30;45.80;;;47.90;nan;100668.16;4999593;28;20712;-63
2022/10/22 10:12:33;;;;;;;1.03;0.70;;;42.30;45.80;;;47.62;nan;100661.91;5005834;28;20660;-63
2022/10/22 10:15:46;;;;;;;0.63;0.63;;;42.10;46.00;;;47.65;nan;100659.22;5005679;28;20646;-64
2022/10/22 10:18:42;;;;;;;0.80;0.80;;;41.80;46.20;;;47.34;nan;100653.69;5006444;28;20622;-64
2022/10/22 10:21:39;;;;;;;0.83;0.83;;;41.60;46.10;;;46.45;nan;100652.34;4990123;28;20825;-63
2022/10/22 10:24:17;;;;;;;1.00;1.00;;;41.50;45.90;;;44.97;nan;100656.44;5009985;28;20637;-63
2022/10/22 10:27:01;;;;;;;1.00;0.90;;;40.30;46.40;;;43.20;nan;100656.75;5011310;28;20621;-63
2022/10/22 10:30:05;;;;;;;0.70;0.70;;;39.20;47.50;;;42.60;nan;100655.16;4993823;28;20674;-62
2022/10/22 10:33:00;;;;;;;1.33;1.23;;;38.20;48.30;;;41.07;nan;100658.84;4997205;28;20652;-62
2022/10/22 10:35:57;;;;;;;3.33;1.77;;;36.90;49.90;;;37.18;nan;100639.00;5012276;28;20638;-62
2022/10/22 10:39:00;;;;;;;0.73;0.73;;;35.00;51.90;;;33.04;nan;100631.75;5010616;28;20722;-62
2022/10/22 10:41:57;;;;;;;1.10;1.10;;;32.20;55.20;;;30.35;nan;100632.63;4993505;28;20664;-63
2022/10/22 10:44:45;;;;;;;1.03;0.80;;;29.80;58.40;;;28.66;nan;100625.63;4992538;28;20637;-64
2022/10/22 10:47:36;;;;;;;1.13;0.70;;;28.10;62.10;;;27.13;nan;100618.53;5011870;28;20624;-65
2022/10/22 10:50:29;;;;;;;1.17;0.90;;;26.80;65.10;;;25.25;nan;100610.97;5010880;28;20636;-66
2022/10/22 10:53:20;;;;;;;1.50;1.40;;;25.20;68.90;;;24.38;nan;100624.31;4991990;28;20695;-65